createdAt,value
2022-09-12T00:12:39.057Z,21.675
2022-09-12T00:27:40.979Z,21.758
2022-09-12T00:42:42.896Z,21.525
2022-09-12T00:57:44.915Z,21.428
2022-09-12T01:12:46.857Z,21.568
2022-09-12T01:27:48.809Z,21.651
2022-09-12T01:42:50.730Z,21.559
2022-09-12T01:57:52.672Z,21.903
2022-09-12T02:12:54.603Z,21.935
2022-09-12T02:27:56.692Z,21.798
2022-09-12T02:42:58.612Z,22.079
2022-09-12T02:58:00.526Z,21.999
2022-09-12T03:13:02.455Z,21.808
2022-09-12T03:28:04.429Z,22.175
2022-09-12T03:43:06.355Z,22.148
2022-09-12T03:58:08.320Z,21.965
2022-09-12T04:13:10.279Z,21.541
2022-09-12T04:28:12.194Z,21.831
2022-09-12T04:43:14.740Z,22.059
2022-09-12T04:58:16.741Z,22.126
2022-09-12T05:13:18.650Z,22.24
2022-09-12T05:28:20.580Z,22.489
2022-09-12T05:43:22.582Z,21.669
2022-09-12T05:58:24.503Z,21.793
2022-09-12T06:13:26.434Z,21.608
2022-09-12T06:28:28.339Z,22.27
2022-09-12T06:43:30.275Z,22.081
2022-09-12T06:58:32.262Z,21.586
2022-09-12T07:13:34.223Z,21.649
2022-09-12T07:28:36.184Z,21.112
2022-09-12T07:43:38.141Z,21.361
2022-09-12T07:58:40.084Z,21.679
2022-09-12T08:13:42.073Z,22.019
2022-09-12T08:28:43.974Z,22.835
2022-09-12T08:43:46.009Z,22.931
2022-09-12T08:58:48.063Z,23.192
2022-09-12T09:13:49.970Z,23.594
2022-09-12T09:28:51.910Z,24.761
2022-09-12T09:43:53.966Z,25.08
2022-09-12T09:58:55.936Z,25.175
2022-09-12T10:13:57.906Z,24.825
2022-09-12T10:28:59.832Z,25.03
2022-09-12T10:44:01.730Z,25.166
2022-09-12T10:59:03.656Z,25.119
2022-09-12T11:14:05.624Z,25.056
2022-09-12T11:29:07.574Z,25.344
2022-09-12T11:44:09.548Z,25.252
2022-09-12T11:59:11.501Z,25.326
2022-09-12T12:14:13.425Z,25.288
2022-09-12T12:29:15.303Z,25.226
2022-09-12T12:44:17.269Z,25.344
2022-09-12T12:59:19.216Z,25.265
2022-09-12T13:14:21.122Z,25.572
2022-09-12T13:29:23.013Z,25.747
2022-09-12T13:44:24.945Z,25.669
2022-09-12T13:59:26.874Z,26.094
2022-09-12T14:14:28.822Z,26.146
2022-09-12T14:29:30.784Z,25.877
2022-09-12T14:44:32.794Z,25.789
2022-09-12T14:59:34.762Z,26.084
2022-09-12T15:14:36.712Z,26.086
2022-09-12T15:29:38.647Z,26.176
2022-09-12T15:44:40.583Z,26.273
2022-09-12T15:59:42.498Z,25.922
2022-09-12T16:14:44.453Z,26.423
2022-09-12T16:29:46.411Z,25.408
2022-09-12T16:44:48.320Z,24.843
2022-09-12T16:59:50.212Z,24.794
2022-09-12T17:14:52.143Z,24.505
2022-09-12T17:29:54.070Z,24.211
2022-09-12T17:44:56.038Z,23.883
2022-09-12T17:59:57.954Z,24.386
2022-09-12T18:14:59.952Z,25.213
2022-09-12T18:30:20.738Z,26.435
2022-09-12T18:45:23.735Z,25.675
2022-09-12T19:00:25.738Z,24.955
2022-09-12T19:15:27.717Z,25.343
2022-09-12T19:30:29.630Z,25.205
2022-09-12T19:45:31.579Z,24.915
2022-09-12T20:00:33.497Z,25.068
2022-09-12T20:15:35.763Z,25.228
2022-09-12T20:30:37.789Z,25.245
2022-09-12T20:45:39.750Z,25.251
2022-09-12T21:00:41.701Z,25.585
2022-09-12T21:15:43.631Z,25.567
2022-09-12T21:30:45.614Z,25.623
2022-09-12T21:45:47.540Z,25.368
2022-09-12T22:00:49.493Z,25.708
2022-09-12T22:15:51.483Z,25.168
2022-09-12T22:30:53.550Z,25.126
2022-09-12T22:45:55.526Z,25.299
2022-09-12T23:00:57.450Z,25.159
2022-09-12T23:15:59.404Z,25.097
2022-09-12T23:31:01.360Z,25.372
2022-09-12T23:46:03.359Z,25.151
